Esteban Echeverria, Argentina
Current Conditions -  °F | °C
As of 3:00 PM on Sunday 23 Nov 2014 (Local Time) from SAEZ Reporting Station
Clear Clear  
Wind Chill: 82°   Ceiling: Unl
Heat Index: 82°   Visibility: 6mi
Dew Point: 57°   Wind: 10mph
Humidity: 42%   Direction: 340°NNW
Pressure: 29.8"   Gusts: NA
Location:  34.83°S, 58.47°W
Report Text: SAEZ 231800Z 34009KT 290V040 CAVOK 28/14 Q1009
Loading
Personal Weather Stations






























Interactive Weather Map New forecast layout! Learn more

10-Day Weather Forecast

Advertisements
Track Severe Weather on mobile